createdAt,value
2019-04-25T00:02:21.538Z,11.80
2019-04-25T00:06:34.488Z,11.80
2019-04-25T00:10:47.617Z,11.70
2019-04-25T00:15:01.351Z,11.70
2019-04-25T00:19:14.161Z,11.70
2019-04-25T00:23:26.639Z,11.70
2019-04-25T00:27:41.470Z,11.80
2019-04-25T00:31:54.115Z,11.80
2019-04-25T00:36:06.868Z,11.80
2019-04-25T00:40:19.109Z,11.70
2019-04-25T00:44:31.986Z,11.60
2019-04-25T00:48:44.664Z,11.60
2019-04-25T00:52:57.094Z,11.70
2019-04-25T00:57:10.061Z,11.60
2019-04-25T01:01:48.014Z,11.60
2019-04-25T01:06:03.435Z,11.60
2019-04-25T01:10:16.149Z,11.60
2019-04-25T01:14:29.551Z,11.60
2019-04-25T01:18:43.635Z,11.60
2019-04-25T01:22:57.557Z,11.70
2019-04-25T01:27:13.537Z,11.60
2019-04-25T01:31:27.915Z,11.30
2019-04-25T01:36:05.111Z,11.20
2019-04-25T01:40:44.562Z,11.20
2019-04-25T01:44:58.852Z,11.20
2019-04-25T01:49:13.999Z,11.30
2019-04-25T01:53:26.645Z,11.30
2019-04-25T01:57:39.048Z,11.30
2019-04-25T02:01:52.948Z,11.30
2019-04-25T02:06:06.364Z,11.30
2019-04-25T02:10:19.078Z,11.30
2019-04-25T02:14:33.546Z,11.20
2019-04-25T02:18:45.998Z,11.30
2019-04-25T02:23:00.003Z,11.40
2019-04-25T02:27:13.502Z,11.40
2019-04-25T02:31:26.473Z,11.50
2019-04-25T02:35:42.886Z,11.40
2019-04-25T02:39:56.657Z,11.40
2019-04-25T02:44:09.993Z,11.40
2019-04-25T02:48:54.995Z,11.30
2019-04-25T02:53:25.674Z,11.30
2019-04-25T02:57:38.746Z,11.30
2019-04-25T03:01:51.213Z,11.30
2019-04-25T03:06:07.513Z,11.40
2019-04-25T03:10:18.416Z,11.40
2019-04-25T03:14:30.948Z,11.30
2019-04-25T03:18:54.482Z,11.00
2019-04-25T03:23:15.146Z,11.00
2019-04-25T03:27:27.863Z,10.90
2019-04-25T03:31:40.434Z,10.90
2019-04-25T03:35:53.410Z,10.90
2019-04-25T03:40:06.619Z,11.00
2019-04-25T03:44:20.526Z,11.00
2019-04-25T03:48:36.495Z,11.10
2019-04-25T03:52:46.950Z,11.10
2019-04-25T03:57:00.276Z,11.00
2019-04-25T04:01:15.385Z,10.90
2019-04-25T04:05:27.264Z,10.80
2019-04-25T04:09:39.681Z,10.80
2019-04-25T04:13:53.786Z,10.70
2019-04-25T04:18:31.323Z,10.70
2019-04-25T04:22:48.153Z,10.80
2019-04-25T04:27:18.512Z,10.80
2019-04-25T04:31:31.181Z,10.90
2019-04-25T04:35:44.161Z,10.90
2019-04-25T04:39:56.983Z,10.90
2019-04-25T04:44:10.001Z,10.90
2019-04-25T04:48:23.807Z,10.80
2019-04-25T04:52:36.168Z,10.80
2019-04-25T04:56:48.578Z,10.90
2019-04-25T05:01:01.572Z,10.90
2019-04-25T05:05:41.779Z,10.90
2019-04-25T05:09:54.905Z,10.80
2019-04-25T05:14:07.315Z,10.80
2019-04-25T05:18:33.065Z,10.90
2019-04-25T05:22:34.061Z,10.90
2019-04-25T05:26:46.580Z,11.00
2019-04-25T05:31:10.223Z,11.00
2019-04-25T05:35:24.286Z,11.00
2019-04-25T05:39:36.887Z,11.00
2019-04-25T05:43:49.748Z,10.90
2019-04-25T05:48:05.745Z,11.00
2019-04-25T05:52:17.522Z,11.00
2019-04-25T05:56:33.629Z,11.00
2019-04-25T06:00:46.074Z,11.00
2019-04-25T06:04:58.428Z,11.10
2019-04-25T06:09:23.749Z,11.20
2019-04-25T06:13:47.041Z,11.30
2019-04-25T06:18:30.648Z,11.30
2019-04-25T06:22:53.899Z,11.30
2019-04-25T06:27:25.887Z,11.30
2019-04-25T06:31:41.753Z,11.20
2019-04-25T06:35:56.830Z,11.10
2019-04-25T06:40:10.337Z,11.10
2019-04-25T06:44:41.450Z,11.20
2019-04-25T06:49:13.453Z,11.20
2019-04-25T06:53:26.948Z,11.20
2019-04-25T06:57:44.090Z,11.20
2019-04-25T07:01:57.888Z,11.20
2019-04-25T07:06:12.923Z,11.20
2019-04-25T07:10:27.515Z,11.20
2019-04-25T07:14:43.993Z,11.10
2019-04-25T07:18:56.844Z,11.20
2019-04-25T07:23:09.328Z,11.40
2019-04-25T07:27:51.257Z,11.50
2019-04-25T07:32:21.182Z,11.70
2019-04-25T07:36:35.139Z,11.70
2019-04-25T07:40:48.282Z,12.00
2019-04-25T07:45:00.870Z,12.20
2019-04-25T07:49:13.656Z,12.30
2019-04-25T07:53:28.033Z,12.60
2019-04-25T07:57:40.575Z,12.90
2019-04-25T08:01:53.595Z,13.00
2019-04-25T08:06:06.320Z,13.00
2019-04-25T08:10:21.011Z,12.80
2019-04-25T08:14:39.821Z,12.50
2019-04-25T08:18:53.953Z,12.10
2019-04-25T08:23:07.025Z,11.80
2019-04-25T08:27:19.452Z,11.60
2019-04-25T08:31:34.799Z,11.50
2019-04-25T08:36:03.372Z,11.40
2019-04-25T08:40:00.900Z,11.60
2019-04-25T08:44:14.158Z,11.90
2019-04-25T08:48:29.341Z,11.90
2019-04-25T08:52:42.853Z,11.90
2019-04-25T08:56:57.576Z,11.90
2019-04-25T09:01:21.004Z,11.80
2019-04-25T09:05:40.651Z,11.80
2019-04-25T09:09:53.584Z,11.90
2019-04-25T09:14:09.435Z,11.80
2019-04-25T09:18:23.867Z,11.80
2019-04-25T09:22:37.401Z,11.80
2019-04-25T09:26:50.459Z,11.90
2019-04-25T09:31:03.953Z,12.00
2019-04-25T09:35:16.400Z,12.00
2019-04-25T09:39:50.859Z,11.80
2019-04-25T09:44:05.528Z,11.60
2019-04-25T09:48:40.301Z,11.60
2019-04-25T09:52:54.623Z,11.60
2019-04-25T09:57:31.108Z,11.80
2019-04-25T10:01:46.798Z,12.00
2019-04-25T10:05:59.615Z,12.60
2019-04-25T10:10:13.520Z,12.70
2019-04-25T10:15:12.110Z,13.00
2019-04-25T10:19:24.981Z,13.60
2019-04-25T10:23:38.251Z,14.00
2019-04-25T10:27:51.888Z,14.20
2019-04-25T10:32:05.132Z,14.40
2019-04-25T10:36:17.977Z,14.40
2019-04-25T10:40:30.678Z,14.60
2019-04-25T10:44:44.823Z,15.00
2019-04-25T10:48:57.342Z,14.90
2019-04-25T10:53:09.769Z,14.60
2019-04-25T10:57:24.783Z,14.50
2019-04-25T11:01:36.998Z,14.00
2019-04-25T11:05:49.842Z,13.40
2019-04-25T11:10:03.578Z,12.70
2019-04-25T11:14:16.318Z,12.20
2019-04-25T11:18:29.236Z,12.20
2019-04-25T11:22:42.382Z,12.20
2019-04-25T11:26:56.768Z,12.30
2019-04-25T11:31:11.437Z,12.30
2019-04-25T11:35:24.659Z,12.20
2019-04-25T11:39:58.989Z,12.90
2019-04-25T11:44:13.844Z,13.70
2019-04-25T11:48:27.788Z,14.30
2019-04-25T11:52:40.836Z,14.70
2019-04-25T11:56:54.758Z,14.80
2019-04-25T12:01:08.700Z,14.80
2019-04-25T12:05:21.186Z,14.80
2019-04-25T12:09:34.169Z,15.10
2019-04-25T12:13:47.823Z,15.40
2019-04-25T12:18:00.939Z,15.60
2019-04-25T12:22:13.492Z,15.00
2019-04-25T12:26:26.282Z,14.50
2019-04-25T12:30:40.389Z,14.10
2019-04-25T12:34:53.665Z,14.10
2019-04-25T12:39:07.740Z,14.10
2019-04-25T12:43:20.987Z,14.50
2019-04-25T12:47:34.478Z,15.00
2019-04-25T12:51:47.762Z,15.50
2019-04-25T12:56:03.966Z,15.70
2019-04-25T13:00:24.171Z,15.70
2019-04-25T13:04:36.637Z,15.70
2019-04-25T13:08:49.588Z,15.90
2019-04-25T13:13:03.907Z,16.00
2019-04-25T13:17:16.591Z,15.90
2019-04-25T13:21:29.029Z,15.90
2019-04-25T13:25:41.636Z,15.90
2019-04-25T13:30:05.575Z,15.90
2019-04-25T13:34:36.381Z,15.80
2019-04-25T13:38:47.523Z,15.80
2019-04-25T13:43:00.179Z,15.80
2019-04-25T13:47:14.043Z,15.80
2019-04-25T13:51:27.132Z,16.00
2019-04-25T13:55:39.594Z,15.80
2019-04-25T13:59:54.139Z,15.40
2019-04-25T14:04:08.801Z,15.10
2019-04-25T14:08:22.847Z,15.20
2019-04-25T14:12:35.879Z,15.20
2019-04-25T14:17:16.971Z,13.90
2019-04-25T14:21:31.576Z,13.10
2019-04-25T14:25:44.387Z,13.90
2019-04-25T14:29:57.264Z,14.40
2019-04-25T14:34:09.781Z,14.90
2019-04-25T14:38:24.344Z,15.20
2019-04-25T14:42:36.827Z,15.00
2019-04-25T14:46:49.418Z,14.90
2019-04-25T14:51:02.096Z,15.30
2019-04-25T14:55:42.200Z,15.50
2019-04-25T14:59:54.617Z,15.60
2019-04-25T15:04:07.967Z,15.60
2019-04-25T15:08:23.817Z,15.10
2019-04-25T15:12:36.789Z,14.80
2019-04-25T15:16:49.773Z,14.70
2019-04-25T15:21:02.350Z,14.60
2019-04-25T15:25:14.753Z,14.60
2019-04-25T15:29:27.751Z,14.60
2019-04-25T15:33:41.977Z,14.40
2019-04-25T15:38:04.350Z,14.10
2019-04-25T15:42:35.628Z,14.10
2019-04-25T15:46:49.842Z,14.50
2019-04-25T15:51:02.448Z,14.70
2019-04-25T15:55:14.834Z,14.80
2019-04-25T15:59:28.797Z,15.00
2019-04-25T16:03:41.512Z,15.00
2019-04-25T16:07:54.027Z,14.50
2019-04-25T16:12:07.696Z,14.30
2019-04-25T16:16:20.581Z,13.90
2019-04-25T16:20:34.205Z,13.60
2019-04-25T16:24:48.423Z,13.60
2019-04-25T16:29:01.627Z,13.60
2019-04-25T16:33:14.141Z,13.50
2019-04-25T16:37:27.963Z,13.40
2019-04-25T16:41:42.332Z,13.20
2019-04-25T16:45:55.185Z,13.10
2019-04-25T16:50:08.285Z,13.10
2019-04-25T16:54:20.735Z,13.10
2019-04-25T16:58:33.740Z,13.10
2019-04-25T17:02:46.285Z,13.10
2019-04-25T17:06:58.742Z,13.10
2019-04-25T17:11:12.647Z,12.70
2019-04-25T17:15:38.684Z,12.50
2019-04-25T17:20:10.394Z,12.30
2019-04-25T17:24:23.191Z,12.20
2019-04-25T17:28:39.161Z,12.20
2019-04-25T17:33:09.291Z,12.30
2019-04-25T17:37:26.011Z,12.30
2019-04-25T17:41:38.593Z,12.40
2019-04-25T17:45:51.334Z,12.60
2019-04-25T17:50:04.176Z,12.70
2019-04-25T17:54:18.426Z,12.70
2019-04-25T17:58:30.976Z,12.80
2019-04-25T18:02:44.413Z,12.90
2019-04-25T18:06:57.292Z,13.00
2019-04-25T18:11:10.048Z,12.90
2019-04-25T18:15:29.968Z,12.80
2019-04-25T18:19:50.239Z,12.60
2019-04-25T18:24:21.489Z,12.40
2019-04-25T18:28:50.339Z,12.30
2019-04-25T18:33:12.352Z,12.20
2019-04-25T18:37:45.942Z,12.10
2019-04-25T18:42:11.031Z,12.10
2019-04-25T18:46:31.533Z,12.20
2019-04-25T18:50:48.559Z,12.30
2019-04-25T18:55:12.175Z,12.30
2019-04-25T18:59:51.609Z,12.20
2019-04-25T19:04:15.440Z,12.20
2019-04-25T19:08:32.170Z,12.30
2019-04-25T19:12:47.678Z,12.30
2019-04-25T19:17:02.990Z,12.30
2019-04-25T19:21:18.682Z,12.10
2019-04-25T19:25:34.834Z,11.90
2019-04-25T19:29:53.554Z,11.80
2019-04-25T19:34:09.558Z,11.70
2019-04-25T19:38:25.036Z,11.60
2019-04-25T19:42:44.519Z,11.50
2019-04-25T19:47:00.037Z,11.30
2019-04-25T19:51:16.820Z,11.10
2019-04-25T19:55:31.501Z,11.00
2019-04-25T19:59:46.781Z,10.90
2019-04-25T20:04:12.344Z,10.80
2019-04-25T20:08:37.106Z,10.80
2019-04-25T20:12:54.847Z,10.90
2019-04-25T20:17:10.573Z,10.90
2019-04-25T20:21:25.741Z,10.90
2019-04-25T20:25:43.739Z,10.90
2019-04-25T20:29:58.017Z,10.80
2019-04-25T20:34:13.246Z,10.90
2019-04-25T20:38:29.023Z,10.80
2019-04-25T20:42:45.558Z,10.80
2019-04-25T20:47:01.272Z,10.80
2019-04-25T20:51:17.557Z,10.80
2019-04-25T20:55:32.865Z,10.80
2019-04-25T20:59:49.361Z,10.90
2019-04-25T21:04:12.941Z,10.90
2019-04-25T21:08:24.344Z,10.90
2019-04-25T21:12:35.727Z,11.00
2019-04-25T21:17:04.385Z,11.10
2019-04-25T21:21:17.164Z,11.10
2019-04-25T21:25:29.888Z,11.10
2019-04-25T21:29:42.447Z,11.00
2019-04-25T21:33:55.286Z,11.00
2019-04-25T21:38:08.264Z,11.00
2019-04-25T21:42:39.323Z,11.00
2019-04-25T21:46:52.458Z,11.10
2019-04-25T21:51:25.789Z,11.10
2019-04-25T21:55:38.329Z,11.00
2019-04-25T22:00:00.319Z,11.00
2019-04-25T22:04:05.214Z,10.90
2019-04-25T22:08:18.598Z,10.80
2019-04-25T22:12:30.984Z,10.90
2019-04-25T22:16:44.219Z,10.90
2019-04-25T22:20:58.295Z,10.80
2019-04-25T22:25:11.762Z,10.80
2019-04-25T22:29:25.608Z,10.80
2019-04-25T22:33:48.710Z,10.80
2019-04-25T22:38:02.169Z,10.80
2019-04-25T22:42:15.313Z,10.70
2019-04-25T22:46:28.380Z,10.80
2019-04-25T22:50:42.597Z,10.80
2019-04-25T22:54:55.695Z,10.80
2019-04-25T22:59:09.022Z,10.80
2019-04-25T23:03:29.468Z,10.80
2019-04-25T23:07:42.296Z,10.60
2019-04-25T23:11:56.298Z,10.50
2019-04-25T23:16:09.452Z,10.50
2019-04-25T23:20:22.045Z,10.40
2019-04-25T23:24:37.095Z,10.40
2019-04-25T23:28:51.205Z,10.40
2019-04-25T23:33:04.295Z,10.40
2019-04-25T23:37:17.903Z,10.30
2019-04-25T23:41:31.163Z,10.30
2019-04-25T23:45:43.598Z,10.30
2019-04-25T23:49:57.425Z,10.20
2019-04-25T23:54:10.838Z,10.10
2019-04-25T23:58:24.715Z,10.00
